10:03
Airports
History
Links
Donate
Help me keep this website running!
Information on this page is community maintained and may be outdated or inaccurate and is intended for simulator navigating and reference only!
Always use approved charts for navigating.
SABE
Aeroparque Jorge Newbery
Aeroparque Jorge Newbery (SABE)
Buenos Aires, Buenos Aires, Argentina (1425)
(C)
Lat/Lng:34° 33' 33.89" S / 58° 24' 56.7" W
-34.559414 / -58.415749
Elevation:17'ft 5mMSL
ID / ICAO:SABE
Runways:1
Longest:(13-31) 2,092.1m 6,864ft Concrete
Controlled:Yes
Distance To
Airport ID:
Airport Radio Frequencies
AEROPARQUE ATIS: 127.6
Clearance Delivery: 129.3
Ground: 121.9
Tower: 118.85
Approach: 118.85
METARUpdated 09-29-16 10:00 GMT
Altimeter: 30.27
Visibility: 6.2 statute miles
Wind: 11 knots (130°)
Temp: 11°c 52°f
Humidity: 81.7%

METAR: SABE 291000Z 13011G21KT 9999 FEW015 SCT026 11/08 Q1025

(Powered by phpweather)
Runway 13 / 31
Dimensions:2092.1 x 39.9m 6864' x 131'ft
Surface:Concrete
Edge Lights:Medium intensity
Runway 13 [A]Runway 31 [B]
Heading:123°TH 303°TH
Lat:
Lng:
34° 33' 14.97"S
58° 25' 30.92"W
34° 33' 52.81"S
58° 24' 22.47"W
ALS:ALSF-I
TDZ:Yes, lighted
Google Map
Nearby Airports
(C) El Palomar 11.7 NM
SADP (WX) WSW 252°
(C) San Fernando 12.3 NM
SADF NW 306°
4 Matanza 12.5 NM
SADZ SSW 202°
(C) Quilmes 14.1 NM
SADQ SE 136°
(C) Campo de Mayo 14.7 NM
SADO W 276°
(C) Moron 15.2 NM
SADM WSW 237°
(C) Aeroclub Argentino 15.8 NM
SADS SW 220°
VFR Chart
Flight Planning at SkyVector.com